createdAt,value
2018-02-07T00:01:15.508Z,87.91
2018-02-07T00:03:46.252Z,87.63
2018-02-07T00:06:17.000Z,87.77
2018-02-07T00:08:47.779Z,87.48
2018-02-07T00:11:18.545Z,87.64
2018-02-07T00:13:49.340Z,87.74
2018-02-07T00:16:20.104Z,87.47
2018-02-07T00:18:50.908Z,87.61
2018-02-07T00:21:21.676Z,87.53
2018-02-07T00:23:52.527Z,87.67
2018-02-07T00:26:23.276Z,87.62
2018-02-07T00:28:54.036Z,87.39
2018-02-07T00:31:24.788Z,87.09
2018-02-07T00:33:55.588Z,86.46
2018-02-07T00:36:26.347Z,86.32
2018-02-07T00:39:04.123Z,85.91
2018-02-07T00:41:34.875Z,85.36
2018-02-07T00:44:05.735Z,84.84
2018-02-07T00:46:36.475Z,85.10
2018-02-07T00:49:07.243Z,85.37
2018-02-07T00:51:38.079Z,85.42
2018-02-07T00:54:08.919Z,85.62
2018-02-07T00:56:43.859Z,85.92
2018-02-07T00:59:14.664Z,85.87
2018-02-07T01:01:45.453Z,85.83
2018-02-07T01:04:16.220Z,85.95
2018-02-07T01:06:46.993Z,85.70
2018-02-07T01:09:17.875Z,85.74
2018-02-07T01:11:48.583Z,86.18
2018-02-07T01:14:19.352Z,86.47
2018-02-07T01:16:50.096Z,86.37
2018-02-07T01:19:20.888Z,86.40
2018-02-07T01:21:51.680Z,86.81
2018-02-07T01:24:22.447Z,86.93
2018-02-07T01:26:53.208Z,86.23
2018-02-07T01:29:24.003Z,86.53
2018-02-07T01:31:54.764Z,86.04
2018-02-07T01:34:25.561Z,86.24
2018-02-07T01:36:56.377Z,86.01
2018-02-07T01:39:27.136Z,86.13
2018-02-07T01:41:57.884Z,86.27
2018-02-07T01:44:28.689Z,86.32
2018-02-07T01:46:59.447Z,86.08
2018-02-07T01:49:30.200Z,86.61
2018-02-07T01:52:00.960Z,86.50
2018-02-07T01:54:31.767Z,86.67
2018-02-07T01:57:02.540Z,86.83
2018-02-07T01:59:33.292Z,86.64
2018-02-07T02:02:04.048Z,87.00
2018-02-07T02:04:34.837Z,87.28
2018-02-07T02:07:05.584Z,87.25
2018-02-07T02:09:36.351Z,87.40
2018-02-07T02:12:07.095Z,87.47
2018-02-07T02:14:37.941Z,87.37
2018-02-07T02:17:08.697Z,87.38
2018-02-07T02:19:39.495Z,87.69
2018-02-07T02:22:10.251Z,87.58
2018-02-07T02:24:41.008Z,87.86
2018-02-07T02:27:11.747Z,87.66
2018-02-07T02:29:42.520Z,87.78
2018-02-07T02:32:13.271Z,87.56
2018-02-07T02:34:44.036Z,87.58
2018-02-07T02:37:14.789Z,87.34
2018-02-07T02:39:45.561Z,87.18
2018-02-07T02:42:16.304Z,87.22
2018-02-07T02:44:47.112Z,87.35
2018-02-07T02:47:17.854Z,87.24
2018-02-07T02:49:48.639Z,87.20
2018-02-07T02:52:19.384Z,87.20
2018-02-07T02:54:50.132Z,87.15
2018-02-07T02:57:20.889Z,87.14
2018-02-07T02:59:51.680Z,87.16
2018-02-07T03:02:22.432Z,87.13
2018-02-07T03:04:53.200Z,87.15
2018-02-07T03:07:23.948Z,86.98
2018-02-07T03:09:54.728Z,87.17
2018-02-07T03:12:25.456Z,87.19
2018-02-07T03:14:56.241Z,87.15
2018-02-07T03:17:26.969Z,87.45
2018-02-07T03:19:57.732Z,87.54
2018-02-07T03:22:28.465Z,87.82
2018-02-07T03:24:59.212Z,87.98
2018-02-07T03:27:29.966Z,87.94
2018-02-07T03:30:00.752Z,87.84
2018-02-07T03:32:31.475Z,87.82
2018-02-07T03:35:02.248Z,87.99
2018-02-07T03:37:32.981Z,87.84
2018-02-07T03:40:03.732Z,87.91
2018-02-07T03:42:34.476Z,88.26
2018-02-07T03:45:05.221Z,88.23
2018-02-07T03:47:36.012Z,88.45
2018-02-07T03:50:06.777Z,88.29
2018-02-07T03:52:37.525Z,88.64
2018-02-07T03:55:08.265Z,88.72
2018-02-07T03:57:39.004Z,88.81
2018-02-07T04:00:09.811Z,88.88
2018-02-07T04:02:40.548Z,89.16
2018-02-07T04:05:11.284Z,89.39
2018-02-07T04:07:42.008Z,89.51
2018-02-07T04:10:12.788Z,89.73
2018-02-07T04:12:43.520Z,89.87
2018-02-07T04:15:14.292Z,90.18
2018-02-07T04:17:45.036Z,90.22
2018-02-07T04:20:15.804Z,90.41
2018-02-07T04:22:46.531Z,90.55
2018-02-07T04:25:17.264Z,90.72
2018-02-07T04:27:47.992Z,90.87
2018-02-07T04:30:18.767Z,91.07
2018-02-07T04:32:49.505Z,91.37
2018-02-07T04:35:27.211Z,91.49
2018-02-07T04:37:57.947Z,91.75
2018-02-07T04:40:28.704Z,91.98
2018-02-07T04:42:59.431Z,92.23
2018-02-07T04:45:30.212Z,92.40
2018-02-07T04:48:00.952Z,91.97
2018-02-07T04:50:31.695Z,91.61
2018-02-07T04:53:02.419Z,91.48
2018-02-07T04:55:33.172Z,91.42
2018-02-07T04:58:03.896Z,91.37
2018-02-07T05:00:34.649Z,91.53
2018-02-07T05:03:05.392Z,91.71
2018-02-07T05:05:36.139Z,91.94
2018-02-07T05:08:06.895Z,92.13
2018-02-07T05:10:37.668Z,92.38
2018-02-07T05:13:08.430Z,92.50
2018-02-07T05:15:39.185Z,92.70
2018-02-07T05:18:09.927Z,92.82
2018-02-07T05:20:40.720Z,92.75
2018-02-07T05:23:11.480Z,92.59
2018-02-07T05:25:42.256Z,92.41
2018-02-07T05:28:13.004Z,92.20
2018-02-07T05:30:43.772Z,91.38
2018-02-07T05:33:14.523Z,91.21
2018-02-07T05:35:45.279Z,91.04
2018-02-07T05:38:16.037Z,90.93
2018-02-07T05:40:46.855Z,90.89
2018-02-07T05:43:17.596Z,90.64
2018-02-07T05:45:48.365Z,90.72
2018-02-07T05:48:19.120Z,90.70
2018-02-07T05:50:49.901Z,90.70
2018-02-07T05:53:20.649Z,90.55
2018-02-07T05:55:51.439Z,90.68
2018-02-07T05:58:22.204Z,90.58
2018-02-07T06:00:53.053Z,90.70
2018-02-07T06:03:23.798Z,90.83
2018-02-07T06:05:54.607Z,90.99
2018-02-07T06:08:25.352Z,90.92
2018-02-07T06:10:56.115Z,90.90
2018-02-07T06:13:26.847Z,90.69
2018-02-07T06:15:57.640Z,90.65
2018-02-07T06:18:28.404Z,90.66
2018-02-07T06:20:59.160Z,90.53
2018-02-07T06:23:29.896Z,90.57
2018-02-07T06:26:00.681Z,90.78
2018-02-07T06:28:31.412Z,90.53
2018-02-07T06:31:02.182Z,90.63
2018-02-07T06:33:32.935Z,90.54
2018-02-07T06:36:03.778Z,90.17
2018-02-07T06:38:34.524Z,90.18
2018-02-07T06:41:05.277Z,90.08
2018-02-07T06:43:36.012Z,90.15
2018-02-07T06:46:06.755Z,90.08
2018-02-07T06:48:37.496Z,90.41
2018-02-07T06:51:08.260Z,90.48
2018-02-07T06:53:39.009Z,90.61
2018-02-07T06:56:09.804Z,90.60
2018-02-07T06:58:40.532Z,90.58
2018-02-07T07:01:11.272Z,90.50
2018-02-07T07:03:41.996Z,90.44
2018-02-07T07:06:12.783Z,90.55
2018-02-07T07:08:43.554Z,90.59
2018-02-07T07:11:14.311Z,90.54
2018-02-07T07:13:45.061Z,90.45
2018-02-07T07:16:15.832Z,90.44
2018-02-07T07:18:46.600Z,90.49
2018-02-07T07:21:17.367Z,90.54
2018-02-07T07:23:48.120Z,90.54
2018-02-07T07:26:18.930Z,90.56
2018-02-07T07:28:49.688Z,90.56
2018-02-07T07:31:20.480Z,90.47
2018-02-07T07:33:51.238Z,90.67
2018-02-07T07:36:22.033Z,90.62
2018-02-07T07:38:52.796Z,90.41
2018-02-07T07:41:23.552Z,90.36
2018-02-07T07:43:54.296Z,90.41
2018-02-07T07:46:25.096Z,90.24
2018-02-07T07:48:55.863Z,90.11
2018-02-07T07:51:26.619Z,89.72
2018-02-07T07:53:57.848Z,89.74
2018-02-07T07:56:28.656Z,89.70
2018-02-07T07:58:59.419Z,89.53
2018-02-07T08:01:30.161Z,89.48
2018-02-07T08:04:00.907Z,89.50
2018-02-07T08:06:31.708Z,89.21
2018-02-07T08:09:02.516Z,89.01
2018-02-07T08:11:33.292Z,88.96
2018-02-07T08:14:04.049Z,88.59
2018-02-07T08:16:34.856Z,88.44
2018-02-07T08:19:05.624Z,88.35
2018-02-07T08:21:51.321Z,88.41
2018-02-07T08:24:22.080Z,87.91
2018-02-07T08:26:52.889Z,87.54
2018-02-07T08:29:23.638Z,87.57
2018-02-07T08:31:54.420Z,87.37
2018-02-07T08:34:25.172Z,87.49
2018-02-07T08:36:55.965Z,87.26
2018-02-07T08:39:26.704Z,87.04
2018-02-07T08:41:57.460Z,87.06
2018-02-07T08:44:28.219Z,86.88
2018-02-07T08:46:58.996Z,87.05
2018-02-07T08:49:29.754Z,86.77
2018-02-07T08:52:00.562Z,86.28
2018-02-07T08:54:31.324Z,86.05
2018-02-07T08:57:02.099Z,85.39
2018-02-07T08:59:33.648Z,85.46
2018-02-07T09:02:04.432Z,85.03
2018-02-07T09:04:35.188Z,84.84
2018-02-07T09:07:05.960Z,84.84
2018-02-07T09:09:36.754Z,83.62
2018-02-07T09:12:07.487Z,84.04
2018-02-07T09:14:38.224Z,83.80
2018-02-07T09:17:09.079Z,84.11
2018-02-07T09:19:39.811Z,83.57
2018-02-07T09:22:10.600Z,83.84
2018-02-07T09:24:41.336Z,83.22
2018-02-07T09:27:12.085Z,82.02
2018-02-07T09:29:42.812Z,81.73
2018-02-07T09:32:13.609Z,80.75
2018-02-07T09:34:44.345Z,80.10
2018-02-07T09:37:15.139Z,81.15
2018-02-07T09:39:45.904Z,79.66
2018-02-07T09:42:16.696Z,79.33
2018-02-07T09:44:47.466Z,80.39
2018-02-07T09:47:18.280Z,79.80
2018-02-07T09:49:49.020Z,79.52
2018-02-07T09:52:19.776Z,78.46
2018-02-07T09:54:50.577Z,78.81
2018-02-07T09:57:21.366Z,78.18
2018-02-07T09:59:52.148Z,78.03
2018-02-07T10:02:22.892Z,79.32
2018-02-07T10:04:54.398Z,79.11
2018-02-07T10:07:25.153Z,79.10
2018-02-07T10:09:55.929Z,77.91
2018-02-07T10:12:26.753Z,77.07
2018-02-07T10:14:57.621Z,78.50
2018-02-07T10:17:28.447Z,77.76
2018-02-07T10:19:59.256Z,76.20
2018-02-07T10:22:30.119Z,77.02
2018-02-07T10:25:00.868Z,76.24
2018-02-07T10:27:31.628Z,76.88
2018-02-07T10:30:02.392Z,76.45
2018-02-07T10:32:33.169Z,76.92
2018-02-07T10:35:03.920Z,77.48
2018-02-07T10:37:34.678Z,78.37
2018-02-07T10:40:05.421Z,78.03
2018-02-07T10:42:36.210Z,77.25
2018-02-07T10:45:06.968Z,78.12
2018-02-07T10:47:37.788Z,78.27
2018-02-07T10:50:08.563Z,77.38
2018-02-07T10:52:39.324Z,78.21
2018-02-07T10:55:10.068Z,76.69
2018-02-07T10:57:40.878Z,78.05
2018-02-07T11:00:11.637Z,77.46
2018-02-07T11:02:42.409Z,77.70
2018-02-07T11:05:13.159Z,77.28
2018-02-07T11:07:43.963Z,76.47
2018-02-07T11:10:14.720Z,74.64
2018-02-07T11:12:45.467Z,74.80
2018-02-07T11:15:16.203Z,75.21
2018-02-07T11:17:47.008Z,74.78
2018-02-07T11:20:17.769Z,73.24
2018-02-07T11:22:48.571Z,72.94
2018-02-07T11:25:19.303Z,74.29
2018-02-07T11:27:50.085Z,74.01
2018-02-07T11:30:20.828Z,74.41
2018-02-07T11:32:51.601Z,74.45
2018-02-07T11:35:22.336Z,75.06
2018-02-07T11:37:53.132Z,75.72
2018-02-07T11:40:23.872Z,75.66
2018-02-07T11:42:54.628Z,75.12
2018-02-07T11:45:25.364Z,75.33
2018-02-07T11:47:56.143Z,75.22
2018-02-07T11:50:26.897Z,74.76
2018-02-07T11:52:57.652Z,75.67
2018-02-07T11:55:30.415Z,75.50
2018-02-07T11:58:01.234Z,75.75
2018-02-07T12:00:31.963Z,76.50
2018-02-07T12:03:02.749Z,75.77
2018-02-07T12:05:33.504Z,76.08
2018-02-07T12:08:04.302Z,75.79
2018-02-07T12:10:35.078Z,76.24
2018-02-07T12:13:05.852Z,75.37
2018-02-07T12:15:36.611Z,76.13
2018-02-07T12:18:07.433Z,75.91
2018-02-07T12:20:38.259Z,75.93
2018-02-07T12:23:09.128Z,75.39
2018-02-07T12:25:39.945Z,74.97
2018-02-07T12:28:10.732Z,75.55
2018-02-07T12:30:41.520Z,75.92
2018-02-07T12:33:12.367Z,75.90
2018-02-07T12:35:43.158Z,76.67
2018-02-07T12:38:13.926Z,76.66
2018-02-07T12:40:44.685Z,76.77
2018-02-07T12:43:15.486Z,76.79
2018-02-07T12:45:46.234Z,77.28
2018-02-07T12:48:17.091Z,76.62
2018-02-07T12:50:47.889Z,77.19
2018-02-07T12:53:18.661Z,76.61
2018-02-07T12:55:49.487Z,77.45
2018-02-07T12:58:20.288Z,77.63
2018-02-07T13:00:51.097Z,77.68
2018-02-07T13:03:21.902Z,77.57
2018-02-07T13:05:52.657Z,77.70
2018-02-07T13:08:23.445Z,78.62
2018-02-07T13:10:54.236Z,78.46
2018-02-07T13:13:25.030Z,77.67
2018-02-07T13:15:55.760Z,78.74
2018-02-07T13:18:26.545Z,78.39
2018-02-07T13:20:57.295Z,77.54
2018-02-07T13:23:28.047Z,77.65
2018-02-07T13:25:58.805Z,77.50
2018-02-07T13:28:29.602Z,77.94
2018-02-07T13:31:00.352Z,78.07
2018-02-07T13:33:31.112Z,77.97
2018-02-07T13:36:01.848Z,77.77
2018-02-07T13:38:32.630Z,78.14
2018-02-07T13:41:03.373Z,77.04
2018-02-07T13:43:34.141Z,77.77
2018-02-07T13:46:04.875Z,77.81
2018-02-07T13:48:35.648Z,78.26
2018-02-07T13:51:06.444Z,79.06
2018-02-07T13:53:37.666Z,78.68
2018-02-07T13:56:08.572Z,78.75
2018-02-07T13:58:39.404Z,79.08
2018-02-07T14:01:10.246Z,79.16
2018-02-07T14:03:41.041Z,79.44
2018-02-07T14:06:11.816Z,79.45
2018-02-07T14:08:42.613Z,79.42
2018-02-07T14:11:13.384Z,79.52
2018-02-07T14:13:44.170Z,80.24
2018-02-07T14:16:14.940Z,79.67
2018-02-07T14:18:45.756Z,80.28
2018-02-07T14:21:16.516Z,80.57
2018-02-07T14:23:47.286Z,80.27
2018-02-07T14:26:18.060Z,80.18
2018-02-07T14:28:48.828Z,80.40
2018-02-07T14:31:19.592Z,80.49
2018-02-07T14:33:50.383Z,80.58
2018-02-07T14:36:21.136Z,80.77
2018-02-07T14:38:51.909Z,81.35
2018-02-07T14:41:22.669Z,81.50
2018-02-07T14:43:53.458Z,80.95
2018-02-07T14:46:24.218Z,80.68
2018-02-07T14:48:54.997Z,80.72
2018-02-07T14:51:25.762Z,80.62
2018-02-07T14:53:56.567Z,80.80
2018-02-07T14:56:27.390Z,80.82
2018-02-07T14:58:58.201Z,80.94
2018-02-07T15:01:28.956Z,80.79
2018-02-07T15:03:59.737Z,81.07
2018-02-07T15:06:30.551Z,81.15
2018-02-07T15:09:01.332Z,81.33
2018-02-07T15:11:32.092Z,81.57
2018-02-07T15:14:02.905Z,81.96
2018-02-07T15:16:33.677Z,81.75
2018-02-07T15:19:04.468Z,82.60
2018-02-07T15:21:35.252Z,82.12
2018-02-07T15:24:06.060Z,83.68
2018-02-07T15:26:36.837Z,84.28
2018-02-07T15:29:07.609Z,84.57
2018-02-07T15:31:38.368Z,84.95
2018-02-07T15:34:09.159Z,85.40
2018-02-07T15:36:39.916Z,86.37
2018-02-07T15:39:10.705Z,86.76
2018-02-07T15:41:41.470Z,86.55
2018-02-07T15:44:12.243Z,87.21
2018-02-07T15:46:43.049Z,88.12
2018-02-07T15:49:13.815Z,87.82
2018-02-07T15:51:44.564Z,88.70
2018-02-07T15:54:15.362Z,89.60
2018-02-07T15:56:46.156Z,89.03
2018-02-07T15:59:16.951Z,89.66
2018-02-07T16:01:47.767Z,89.89
2018-02-07T16:04:18.578Z,90.10
2018-02-07T16:06:49.340Z,90.38
2018-02-07T16:09:20.175Z,90.67
2018-02-07T16:11:50.950Z,90.78
2018-02-07T16:14:21.717Z,90.62
2018-02-07T16:16:52.487Z,91.04
2018-02-07T16:19:23.258Z,91.10
2018-02-07T16:21:54.022Z,91.08
2018-02-07T16:24:24.793Z,91.71
2018-02-07T16:26:55.572Z,91.42
2018-02-07T16:29:26.336Z,91.69
2018-02-07T16:31:57.105Z,91.29
2018-02-07T16:34:27.887Z,91.24
2018-02-07T16:36:58.651Z,91.61
2018-02-07T16:39:29.429Z,91.17
2018-02-07T16:42:00.191Z,91.89
2018-02-07T16:44:31.016Z,91.62
2018-02-07T16:47:01.795Z,91.82
2018-02-07T16:49:39.584Z,91.97
2018-02-07T16:52:10.378Z,91.98
2018-02-07T16:54:41.176Z,91.78
2018-02-07T16:57:11.920Z,91.79
2018-02-07T16:59:42.736Z,92.43
2018-02-07T17:02:13.506Z,92.63
2018-02-07T17:04:44.621Z,92.86
2018-02-07T17:07:15.379Z,92.55
2018-02-07T17:09:46.142Z,93.18
2018-02-07T17:12:16.922Z,92.95
2018-02-07T17:14:47.681Z,91.88
2018-02-07T17:17:18.416Z,92.31
2018-02-07T17:19:49.164Z,92.73
2018-02-07T17:22:19.912Z,93.23
2018-02-07T17:24:50.661Z,92.99
2018-02-07T17:27:21.425Z,93.16
2018-02-07T17:29:52.184Z,93.13
2018-02-07T17:32:22.929Z,93.10
2018-02-07T17:34:53.672Z,93.41
2018-02-07T17:37:24.413Z,93.11
2018-02-07T17:39:55.199Z,93.04
2018-02-07T17:42:25.952Z,93.45
2018-02-07T17:44:56.732Z,93.58
2018-02-07T17:47:27.469Z,93.10
2018-02-07T17:49:58.204Z,93.49
2018-02-07T17:52:28.975Z,93.84
2018-02-07T17:54:59.774Z,93.81
2018-02-07T17:57:30.562Z,93.73
2018-02-07T18:00:01.329Z,93.38
2018-02-07T18:02:32.073Z,92.95
2018-02-07T18:05:02.863Z,93.43
2018-02-07T18:07:33.612Z,93.79
2018-02-07T18:10:04.390Z,93.17
2018-02-07T18:12:35.145Z,93.25
2018-02-07T18:15:05.953Z,93.52
2018-02-07T18:17:36.712Z,93.39
2018-02-07T18:20:07.485Z,93.55
2018-02-07T18:22:38.360Z,93.86
2018-02-07T18:25:09.183Z,93.69
2018-02-07T18:27:39.980Z,93.71
2018-02-07T18:30:10.752Z,93.92
2018-02-07T18:32:41.519Z,94.03
2018-02-07T18:35:12.313Z,94.15
2018-02-07T18:37:43.093Z,94.19
2018-02-07T18:40:13.864Z,94.08
2018-02-07T18:42:44.642Z,93.76
2018-02-07T18:45:15.431Z,93.53
2018-02-07T18:47:46.199Z,93.37
2018-02-07T18:50:16.952Z,93.50
2018-02-07T18:52:47.727Z,93.35
2018-02-07T18:55:18.514Z,93.59
2018-02-07T18:57:49.275Z,93.36
2018-02-07T19:00:20.044Z,93.80
2018-02-07T19:02:50.795Z,93.69
2018-02-07T19:05:21.575Z,93.77
2018-02-07T19:07:52.347Z,93.97
2018-02-07T19:10:23.147Z,93.82
2018-02-07T19:12:53.914Z,94.13
2018-02-07T19:15:31.739Z,94.06
2018-02-07T19:18:02.508Z,94.04
2018-02-07T19:20:40.133Z,93.75
2018-02-07T19:23:10.896Z,93.84
2018-02-07T19:25:41.680Z,94.06
2018-02-07T19:28:12.457Z,94.04
2018-02-07T19:30:43.240Z,94.18
2018-02-07T19:33:13.991Z,94.10
2018-02-07T19:35:44.783Z,93.88
2018-02-07T19:38:15.538Z,94.02
2018-02-07T19:40:46.289Z,93.85
2018-02-07T19:43:17.044Z,93.98
2018-02-07T19:45:47.820Z,94.11
2018-02-07T19:48:18.578Z,94.02
2018-02-07T19:50:49.328Z,94.33
2018-02-07T19:53:20.104Z,94.31
2018-02-07T19:55:50.914Z,94.23
2018-02-07T19:58:21.640Z,94.12
2018-02-07T20:00:52.413Z,94.31
2018-02-07T20:03:23.164Z,94.59
2018-02-07T20:05:53.976Z,94.89
2018-02-07T20:08:24.769Z,94.50
2018-02-07T20:10:55.537Z,94.43
2018-02-07T20:13:26.299Z,94.50
2018-02-07T20:15:57.062Z,94.57
2018-02-07T20:18:27.827Z,94.72
2018-02-07T20:20:58.600Z,94.49
2018-02-07T20:23:29.364Z,94.55
2018-02-07T20:26:00.136Z,94.87
2018-02-07T20:28:30.892Z,94.78
2018-02-07T20:31:01.722Z,94.79
2018-02-07T20:33:32.501Z,94.59
2018-02-07T20:36:03.305Z,94.62
2018-02-07T20:38:34.069Z,94.70
2018-02-07T20:41:04.891Z,94.39
2018-02-07T20:43:35.655Z,94.61
2018-02-07T20:46:06.435Z,94.57
2018-02-07T20:48:37.188Z,94.78
2018-02-07T20:51:07.968Z,94.57
2018-02-07T20:53:38.779Z,94.42
2018-02-07T20:56:09.570Z,94.38
2018-02-07T20:58:40.327Z,94.43
2018-02-07T21:01:11.118Z,94.65
2018-02-07T21:03:41.868Z,94.42
2018-02-07T21:06:12.637Z,94.07
2018-02-07T21:08:43.380Z,94.20
2018-02-07T21:11:14.168Z,94.18
2018-02-07T21:13:44.917Z,94.12
2018-02-07T21:16:15.711Z,94.31
2018-02-07T21:18:46.456Z,94.12
2018-02-07T21:21:17.236Z,94.23
2018-02-07T21:23:47.997Z,94.43
2018-02-07T21:26:18.847Z,94.17
2018-02-07T21:28:49.604Z,94.37
2018-02-07T21:31:20.373Z,94.62
2018-02-07T21:33:51.132Z,94.58
2018-02-07T21:36:21.937Z,94.42
2018-02-07T21:38:52.684Z,94.48
2018-02-07T21:41:24.304Z,94.42
2018-02-07T21:43:55.076Z,94.03
2018-02-07T21:46:25.858Z,93.99
2018-02-07T21:48:56.828Z,93.99
2018-02-07T21:51:27.619Z,93.81
2018-02-07T21:53:58.397Z,93.97
2018-02-07T21:56:29.207Z,93.82
2018-02-07T21:58:59.979Z,93.87
2018-02-07T22:01:30.752Z,93.93
2018-02-07T22:04:01.495Z,94.05
2018-02-07T22:06:32.246Z,94.02
2018-02-07T22:09:03.081Z,93.96
2018-02-07T22:11:33.848Z,93.90
2018-02-07T22:14:04.595Z,94.11
2018-02-07T22:16:35.373Z,93.92
2018-02-07T22:19:06.127Z,93.78
2018-02-07T22:21:36.943Z,94.00
2018-02-07T22:24:07.724Z,94.13
2018-02-07T22:26:38.532Z,94.39
2018-02-07T22:29:09.301Z,94.13
2018-02-07T22:31:40.108Z,94.21
2018-02-07T22:34:10.891Z,94.42
2018-02-07T22:36:41.674Z,94.39
2018-02-07T22:39:12.449Z,94.33
2018-02-07T22:41:43.240Z,94.20
2018-02-07T22:44:13.997Z,94.13
2018-02-07T22:46:44.815Z,94.30
2018-02-07T22:49:15.584Z,94.76
2018-02-07T22:51:46.356Z,94.46
2018-02-07T22:54:17.111Z,94.52
2018-02-07T22:56:47.919Z,94.46
2018-02-07T22:59:18.675Z,94.29
2018-02-07T23:01:49.472Z,94.51
2018-02-07T23:04:20.236Z,94.41
2018-02-07T23:06:51.035Z,94.52
2018-02-07T23:09:21.798Z,94.42
2018-02-07T23:11:52.568Z,94.58
2018-02-07T23:14:23.308Z,94.30
2018-02-07T23:16:54.044Z,94.36
2018-02-07T23:19:24.787Z,94.32
2018-02-07T23:21:55.544Z,94.38
2018-02-07T23:24:26.294Z,94.39
2018-02-07T23:26:57.136Z,94.22
2018-02-07T23:29:27.869Z,94.42
2018-02-07T23:31:58.637Z,94.54
2018-02-07T23:34:29.438Z,94.51
2018-02-07T23:37:00.194Z,94.23
2018-02-07T23:39:30.927Z,94.22
2018-02-07T23:42:01.712Z,94.57
2018-02-07T23:44:32.452Z,94.60
2018-02-07T23:47:03.204Z,94.54
2018-02-07T23:49:33.955Z,94.35
2018-02-07T23:52:04.744Z,94.21
2018-02-07T23:54:35.484Z,94.28
2018-02-07T23:57:06.242Z,94.21
2018-02-07T23:59:36.984Z,93.98
